Time;durP1;ratioP1;P1;durP2;ratioP2;P2;SDS_P1;SDS_P2;PMS_P1;PMS_P2;Temp;Humidity;BMP_temperature;BMP_pressure;BME280_temperature;BME280_humidity;BME280_pressure;Samples;Min_cycle;Max_cycle;Signal;HPM_P1;HPM_P2
2022/01/24 00:01:19;;;;;;;53.70;24.38;;;;;;;4.71;100.00;103482.25;5073505;28;20052;-47
2022/01/24 00:03:47;;;;;;;48.40;25.05;;;;;;;4.77;100.00;103491.81;5073495;28;20079;-50
2022/01/24 00:06:16;;;;;;;47.75;24.48;;;;;;;4.78;100.00;103485.75;5073455;28;20040;-45
2022/01/24 00:08:44;;;;;;;47.33;23.83;;;;;;;4.77;100.00;103489.22;5073490;28;20128;-57
2022/01/24 00:11:17;;;;;;;43.78;23.80;;;;;;;4.72;100.00;103480.53;5073193;28;20048;-46
2022/01/24 00:17:01;;;;;;;41.78;22.08;;;;;;;4.73;100.00;103490.97;5073398;28;20048;-56
2022/01/24 00:27:47;;;;;;;47.50;22.80;;;;;;;4.70;100.00;103480.53;5073031;28;20060;-57
2022/01/24 00:30:16;;;;;;;47.20;23.13;;;;;;;4.60;100.00;103477.91;5072659;28;20106;-57
2022/01/24 00:32:46;;;;;;;45.47;23.13;;;;;;;4.65;100.00;103470.94;5073010;28;20045;-57
2022/01/24 00:35:15;;;;;;;45.00;23.33;;;;;;;4.67;100.00;103469.22;5072765;28;20044;-49
2022/01/24 00:37:43;;;;;;;43.58;23.10;;;;;;;4.61;100.00;103477.00;5072927;28;20083;-49
2022/01/24 00:40:12;;;;;;;47.83;23.15;;;;;;;4.62;100.00;103470.94;5072774;28;20090;-56
2022/01/24 00:42:50;;;;;;;40.83;21.58;;;;;;;4.60;100.00;103470.09;5072659;28;20403;-58
2022/01/24 00:45:29;;;;;;;44.15;21.70;;;;;;;4.62;100.00;103466.63;5072705;28;20113;-58
2022/01/24 00:48:29;;;;;;;49.05;23.98;;;;;;;4.62;100.00;103474.44;5072684;28;20056;-46
2022/01/24 00:54:00;;;;;;;42.92;22.60;;;;;;;4.63;100.00;103470.09;5072697;28;20049;-56
2022/01/24 00:56:29;;;;;;;45.75;22.48;;;;;;;4.66;100.00;103475.28;5072720;28;20048;-58
2022/01/24 00:58:57;;;;;;;45.78;23.25;;;;;;;4.64;100.00;103470.09;5072523;28;20068;-58
2022/01/24 01:01:25;;;;;;;44.92;22.92;;;;;;;4.63;100.00;103473.53;5072584;28;20042;-48
2022/01/24 01:03:55;;;;;;;47.55;23.75;;;;;;;4.66;100.00;103462.25;5072535;28;20094;-46
2022/01/24 01:06:23;;;;;;;43.40;21.92;;;;;;;4.62;100.00;103460.50;5072253;28;20544;-57
2022/01/24 01:19:59;;;;;;;41.13;19.90;;;;;;;4.59;100.00;103457.91;5072365;28;20479;-46
2022/01/24 01:22:27;;;;;;;44.28;20.70;;;;;;;4.61;100.00;103464.88;5072254;28;20044;-48
2022/01/24 01:24:56;;;;;;;44.03;22.02;;;;;;;4.57;100.00;103457.91;5072154;28;20430;-58
2022/01/24 01:27:29;;;;;;;41.13;20.95;;;;;;;4.59;100.00;103460.53;5072281;28;20048;-58
2022/01/24 01:30:01;;;;;;;;;;;;;;;4.59;100.00;103455.31;5072802;28;20119;-47
2022/01/24 01:32:46;;;;;;;41.60;21.27;;;;;;;4.59;100.00;103460.53;5072359;28;19928;-58
2022/01/24 01:35:34;;;;;;;41.63;20.77;;;;;;;4.55;100.00;103464.84;5072304;28;20177;-58
2022/01/24 01:52:34;;;;;;;38.17;19.77;;;;;;;4.52;100.00;103451.81;5062544;28;20052;-45
2022/01/24 01:55:15;;;;;;;33.50;17.13;;;;;;;4.54;100.00;103457.88;5076187;28;20043;-47
2022/01/24 01:57:43;;;;;;;34.40;18.58;;;;;;;4.52;100.00;103450.06;5074854;28;20053;-47
2022/01/24 02:00:13;;;;;;;39.55;19.30;;;;;;;4.50;100.00;103450.94;5076186;28;20568;-57
2022/01/24 02:02:41;;;;;;;35.72;18.27;;;;;;;4.51;100.00;103450.97;5076067;28;20060;-57
2022/01/24 02:05:10;;;;;;;37.40;19.17;;;;;;;4.48;100.00;103450.94;5075825;28;20047;-57
2022/01/24 02:07:48;;;;;;;34.55;17.73;;;;;;;4.44;100.00;103446.56;5076094;28;20040;-49
2022/01/24 02:10:20;;;;;;;33.40;18.45;;;;;;;4.42;100.00;103443.13;5075419;28;20059;-45
2022/01/24 02:12:49;;;;;;;37.40;17.50;;;;;;;4.37;100.00;103437.88;5075787;28;20055;-50
2022/01/24 02:15:24;;;;;;;31.73;17.30;;;;;;;4.39;100.00;103443.09;5075580;28;20041;-48
2022/01/24 02:18:03;;;;;;;33.42;17.05;;;;;;;4.41;100.00;103436.16;5075698;28;20407;-49
2022/01/24 02:21:04;;;;;;;32.72;17.23;;;;;;;4.37;100.00;103442.22;5075422;28;20048;-58
2022/01/24 02:23:40;;;;;;;31.27;16.23;;;;;;;4.49;99.88;103437.03;5075163;28;20041;-49
2022/01/24 02:26:12;;;;;;;30.65;17.40;;;;;;;4.46;100.00;103438.75;5075420;28;20076;-46
2022/01/24 02:28:52;;;;;;;33.85;17.27;;;;;;;4.45;100.00;103437.03;5075476;28;20044;-57
2022/01/24 02:34:25;;;;;;;32.35;17.08;;;;;;;4.44;100.00;103427.47;5075150;28;20063;-46
2022/01/24 02:36:55;;;;;;;30.70;17.20;;;;;;;4.44;100.00;103435.28;5075173;28;20040;-46
2022/01/24 02:50:49;;;;;;;27.92;15.02;;;;;;;4.42;100.00;103427.47;5074817;28;20060;-45
2022/01/24 02:53:18;;;;;;;30.98;15.38;;;;;;;4.40;100.00;103423.97;5074539;28;20759;-47
2022/01/24 02:55:48;;;;;;;26.00;14.43;;;;;;;4.42;100.00;103417.06;5075210;28;20407;-47
2022/01/24 02:58:17;;;;;;;28.98;15.88;;;;;;;4.39;100.00;103419.63;5074638;28;20049;-47
2022/01/24 03:00:47;;;;;;;26.83;15.18;;;;;;;4.37;100.00;103421.38;5075057;28;20103;-57
2022/01/24 03:03:16;;;;;;;29.42;16.10;;;;;;;4.35;100.00;103412.69;5075067;28;20041;-58
2022/01/24 03:05:44;;;;;;;26.90;15.00;;;;;;;4.35;100.00;103405.75;5075176;28;20391;-47
2022/01/24 03:08:14;;;;;;;27.75;14.85;;;;;;;4.20;100.00;103406.56;5074708;28;20102;-44
2022/01/24 03:10:45;;;;;;;26.52;15.05;;;;;;;4.28;100.00;103405.72;5074778;28;20044;-43
2022/01/24 03:13:32;;;;;;;29.05;15.35;;;;;;;4.28;99.80;103406.63;5074758;28;20391;-44
2022/01/24 03:16:04;;;;;;;26.92;14.35;;;;;;;4.18;100.00;103408.28;5074589;28;20055;-43
2022/01/24 03:18:32;;;;;;;28.17;15.30;;;;;;;4.22;100.00;103412.66;5074466;28;20445;-45
2022/01/24 03:21:01;;;;;;;29.17;15.65;;;;;;;4.16;100.00;103406.53;5074449;28;20047;-56
2022/01/24 03:23:29;;;;;;;26.63;14.88;;;;;;;4.15;100.00;103408.28;5074409;28;20435;-44
2022/01/24 03:25:57;;;;;;;29.73;15.70;;;;;;;4.12;100.00;103405.69;5074066;28;20048;-47
2022/01/24 03:28:27;;;;;;;27.92;15.98;;;;;;;4.07;100.00;103407.41;5073719;28;20448;-55
2022/01/24 03:30:55;;;;;;;29.63;15.63;;;;;;;4.05;100.00;103403.94;5073594;28;20045;-48
2022/01/24 03:33:23;;;;;;;27.90;15.05;;;;;;;4.05;100.00;103403.94;5074000;28;20048;-48
2022/01/24 03:35:51;;;;;;;28.27;14.98;;;;;;;4.04;100.00;103400.44;5074410;28;20395;-57
2022/01/24 03:38:19;;;;;;;27.95;15.25;;;;;;;4.02;100.00;103396.09;5073984;28;20098;-57
2022/01/24 03:40:47;;;;;;;30.35;16.42;;;;;;;3.94;100.00;103397.81;5073940;28;20055;-58
2022/01/24 03:43:17;;;;;;;28.73;14.88;;;;;;;3.97;100.00;103392.63;5073967;28;20094;-58
2022/01/24 03:45:58;;;;;;;30.23;15.15;;;;;;;4.03;100.00;103397.84;5074394;28;20051;-58
2022/01/24 03:48:38;;;;;;;30.50;16.10;;;;;;;3.96;100.00;103394.34;5073887;28;20448;-57
2022/01/24 03:51:07;;;;;;;27.65;15.07;;;;;;;3.98;100.00;103400.44;5073759;28;20390;-57
2022/01/24 03:53:35;;;;;;;33.85;16.85;;;;;;;3.96;100.00;103401.31;5072572;28;20048;-47
2022/01/24 03:56:04;;;;;;;30.30;15.98;;;;;;;3.95;100.00;103402.16;5073640;28;20049;-56
2022/01/24 03:58:33;;;;;;;29.13;14.95;;;;;;;3.91;100.00;103392.59;5073267;28;20045;-58
2022/01/24 04:01:06;;;;;;;28.63;15.35;;;;;;;3.92;100.00;103399.56;5073522;28;20502;-58
2022/01/24 04:03:35;;;;;;;28.08;16.15;;;;;;;3.89;100.00;103400.41;5072884;28;20102;-57
2022/01/24 04:06:04;;;;;;;29.33;15.70;;;;;;;3.88;100.00;103396.91;5072252;28;20032;-45
2022/01/24 04:08:32;;;;;;;30.67;16.00;;;;;;;3.89;100.00;103390.84;5072084;28;20055;-46
2022/01/24 04:11:01;;;;;;;33.78;16.55;;;;;;;3.93;100.00;103393.47;5073536;28;20094;-56
2022/01/24 04:13:33;;;;;;;34.40;17.17;;;;;;;3.86;100.00;103395.19;5073281;28;20052;-55
2022/01/24 04:16:25;;;;;;;29.02;15.93;;;;;;;3.86;100.00;103390.84;5071436;28;20071;-57
2022/01/24 04:19:01;;;;;;;30.43;15.67;;;;;;;3.89;100.00;103397.81;5071924;28;20048;-58
2022/01/24 04:21:30;;;;;;;31.65;16.90;;;;;;;3.83;100.00;103396.06;5072988;28;20040;-47
2022/01/24 04:24:03;;;;;;;30.33;16.85;;;;;;;3.85;100.00;103401.25;5072863;28;20534;-44
2022/01/24 04:26:33;;;;;;;29.48;15.43;;;;;;;3.83;100.00;103400.38;5072704;28;20052;-49
2022/01/24 04:29:01;;;;;;;30.83;16.15;;;;;;;3.81;100.00;103409.91;5073116;28;20148;-45
2022/01/24 04:31:31;;;;;;;28.40;15.32;;;;;;;3.81;100.00;103409.91;5073022;28;20102;-46
2022/01/24 04:34:00;;;;;;;28.63;16.05;;;;;;;3.83;100.00;103408.19;5072975;28;20114;-47
2022/01/24 04:36:28;;;;;;;28.77;14.60;;;;;;;3.85;100.00;103412.53;5073257;28;20495;-47
2022/01/24 04:38:57;;;;;;;29.92;15.48;;;;;;;3.84;100.00;103409.94;5072599;28;20052;-45
2022/01/24 04:41:29;;;;;;;29.88;16.60;;;;;;;3.80;100.00;103411.63;5072744;28;20052;-43
2022/01/24 04:44:06;;;;;;;31.73;16.52;;;;;;;3.78;100.00;103404.72;5073051;28;20162;-57
2022/01/24 04:52:26;;;;;;;30.08;16.25;;;;;;;3.76;100.00;103411.63;5072660;28;20049;-50
2022/01/24 04:54:56;;;;;;;30.35;15.80;;;;;;;3.77;100.00;103405.56;5072419;28;20097;-57
2022/01/24 04:57:26;;;;;;;29.00;15.98;;;;;;;3.80;100.00;103406.44;5072331;28;20052;-46
2022/01/24 04:59:56;;;;;;;34.28;17.25;;;;;;;3.77;100.00;103406.44;5072327;28;20066;-47
2022/01/24 05:02:27;;;;;;;30.85;15.77;;;;;;;3.71;100.00;103407.28;5072156;28;20384;-44
2022/01/24 05:04:57;;;;;;;30.20;15.98;;;;;;;3.73;100.00;103412.47;5072438;28;20364;-44
2022/01/24 05:07:25;;;;;;;30.15;16.35;;;;;;;3.72;100.00;103409.03;5072374;28;20460;-58
2022/01/24 05:09:59;;;;;;;30.15;15.43;;;;;;;3.68;100.00;103404.66;5072544;28;20048;-43
2022/01/24 05:21:10;;;;;;;28.55;15.27;;;;;;;3.62;100.00;103403.75;5072519;28;20491;-57
2022/01/24 05:23:41;;;;;;;25.38;13.43;;;;;;;3.67;100.00;103405.53;5072159;28;20126;-58
2022/01/24 05:26:10;;;;;;;22.77;12.88;;;;;;;3.62;100.00;103395.94;5072456;28;20058;-46
2022/01/24 05:28:39;;;;;;;21.67;12.60;;;;;;;3.62;100.00;103402.00;5072280;28;20090;-58
2022/01/24 05:31:07;;;;;;;22.92;12.40;;;;;;;3.67;100.00;103400.31;5072131;28;20072;-58
2022/01/24 05:33:36;;;;;;;23.20;12.57;;;;;;;3.71;100.00;103393.41;5072209;28;20090;-59
2022/01/24 05:36:05;;;;;;;22.00;12.25;;;;;;;3.71;99.74;103398.59;5072075;28;20055;-58
2022/01/24 05:38:33;;;;;;;22.08;11.68;;;;;;;3.61;100.00;103399.41;5072169;28;20067;-46
2022/01/24 05:41:02;;;;;;;20.65;11.88;;;;;;;3.66;100.00;103392.50;5072059;28;20102;-47
2022/01/24 05:43:30;;;;;;;22.70;12.23;;;;;;;3.63;100.00;103395.97;5071953;28;20051;-45
2022/01/24 05:45:59;;;;;;;24.17;12.00;;;;;;;3.66;100.00;103398.56;5071714;28;20078;-58
2022/01/24 05:48:27;;;;;;;22.08;12.48;;;;;;;3.70;100.00;103402.91;5071538;28;20050;-58
2022/01/24 05:50:57;;;;;;;21.30;11.85;;;;;;;3.66;100.00;103408.97;5071939;28;20131;-59
2022/01/24 05:53:25;;;;;;;25.08;13.60;;;;;;;3.60;100.00;103400.25;5072019;28;20491;-58
2022/01/24 05:55:54;;;;;;;23.70;12.65;;;;;;;3.61;100.00;103405.47;5072183;28;20263;-49
2022/01/24 05:58:22;;;;;;;25.10;13.35;;;;;;;3.62;100.00;103409.81;5071773;28;20110;-49
2022/01/24 06:00:51;;;;;;;23.67;13.52;;;;;;;3.66;100.00;103405.50;5072284;28;20052;-58
2022/01/24 06:03:19;;;;;;;26.42;14.20;;;;;;;3.64;100.00;103415.03;5072194;28;20059;-59
2022/01/24 06:05:47;;;;;;;25.08;13.75;;;;;;;3.67;100.00;103415.94;5071786;28;20150;-46
2022/01/24 06:08:16;;;;;;;23.75;13.27;;;;;;;3.65;100.00;103416.78;5071671;28;20411;-50
2022/01/24 06:10:46;;;;;;;24.25;13.52;;;;;;;3.61;100.00;103412.44;5072115;28;20045;-49
2022/01/24 06:13:14;;;;;;;24.25;13.98;;;;;;;3.67;100.00;103412.47;5071936;28;20045;-58
2022/01/24 06:15:43;;;;;;;23.42;13.05;;;;;;;3.64;100.00;103410.72;5071731;28;20056;-49
2022/01/24 06:18:11;;;;;;;22.33;12.85;;;;;;;3.62;100.00;103404.63;5071730;28;20053;-46
2022/01/24 06:20:43;;;;;;;25.48;12.88;;;;;;;3.64;100.00;103399.41;5070544;28;20048;-49
2022/01/24 06:23:13;;;;;;;21.63;12.85;;;;;;;3.59;100.00;103401.16;5071651;28;20546;-50
2022/01/24 06:25:43;;;;;;;25.38;13.88;;;;;;;3.59;100.00;103402.00;5071883;28;20053;-58
2022/01/24 06:28:11;;;;;;;23.52;13.43;;;;;;;3.64;100.00;103402.91;5073931;28;20056;-58
2022/01/24 06:30:39;;;;;;;22.63;12.90;;;;;;;3.65;100.00;103408.97;5075577;28;20045;-47
2022/01/24 06:33:07;;;;;;;25.40;13.73;;;;;;;3.65;100.00;103408.97;5075230;28;20048;-58
2022/01/24 06:35:36;;;;;;;27.00;14.10;;;;;;;3.56;100.00;103412.41;5075411;28;20502;-51
2022/01/24 06:38:04;;;;;;;22.83;13.77;;;;;;;3.59;100.00;103411.56;5075412;28;20387;-47
2022/01/24 06:40:32;;;;;;;22.90;13.15;;;;;;;3.57;100.00;103413.28;5075432;28;20048;-57
2022/01/24 06:43:02;;;;;;;22.45;12.95;;;;;;;3.57;100.00;103408.06;5075391;28;20071;-46
2022/01/24 06:45:30;;;;;;;23.05;13.57;;;;;;;3.61;100.00;103409.81;5074053;28;20052;-48
2022/01/24 06:47:58;;;;;;;23.20;13.43;;;;;;;3.63;100.00;103408.97;5075260;28;20101;-57
2022/01/24 06:50:26;;;;;;;20.55;12.43;;;;;;;3.63;100.00;103421.97;5074765;28;20398;-49
2022/01/24 06:52:54;;;;;;;24.60;13.20;;;;;;;3.57;100.00;103415.88;5075086;28;20049;-46
2022/01/24 06:55:23;;;;;;;22.60;12.27;;;;;;;3.53;100.00;103417.56;5074930;28;20059;-45
2022/01/24 06:57:51;;;;;;;23.83;13.00;;;;;;;3.58;100.00;103417.63;5073763;28;20056;-44
2022/01/24 07:00:25;;;;;;;22.85;14.70;;;;;;;3.58;100.00;103421.09;5074765;28;20056;-46
2022/01/24 07:02:54;;;;;;;21.05;12.75;;;;;;;3.59;100.00;103424.56;5074736;28;20067;-48
2022/01/24 07:05:22;;;;;;;21.58;13.27;;;;;;;3.55;100.00;103428.88;5074779;28;20101;-49
2022/01/24 07:07:50;;;;;;;20.65;13.20;;;;;;;3.58;100.00;103422.81;5074789;28;20048;-48
2022/01/24 07:10:18;;;;;;;20.27;12.25;;;;;;;3.62;100.00;103424.59;5074494;28;20357;-50
2022/01/24 07:12:57;;;;;;;22.27;12.88;;;;;;;3.66;100.00;103426.34;5074403;28;20049;-45
2022/01/24 07:15:33;;;;;;;20.30;11.95;;;;;;;3.64;100.00;103425.44;5073207;28;20036;-47
2022/01/24 07:18:56;;;;;;;22.27;12.73;;;;;;;3.62;100.00;103425.44;5074711;28;20612;-45
2022/01/24 07:21:05;;;;;;;21.70;12.85;;;;;;;3.66;100.00;103434.16;5074288;28;20045;-47
2022/01/24 07:23:34;;;;;;;;;;;;;;;3.62;99.99;103425.44;5074606;28;20055;-46
2022/01/24 07:26:03;;;;;;;19.95;11.93;;;;;;;3.67;100.00;103435.91;5074242;28;19924;-58
2022/01/24 07:28:31;;;;;;;20.88;12.90;;;;;;;3.67;100.00;103430.69;5074463;28;20567;-58
2022/01/24 07:31:01;;;;;;;20.25;12.38;;;;;;;3.59;100.00;103438.44;5074383;28;20455;-46
2022/01/24 07:33:29;;;;;;;23.95;13.23;;;;;;;3.65;100.00;103445.41;5074295;28;20581;-57
2022/01/24 07:35:57;;;;;;;21.42;13.23;;;;;;;3.66;100.00;103444.56;5074291;28;20393;-58
2022/01/24 07:38:25;;;;;;;21.17;12.57;;;;;;;3.68;100.00;103448.91;5073213;28;20407;-58
2022/01/24 07:40:55;;;;;;;21.45;12.80;;;;;;;3.67;100.00;103446.31;5073876;28;20376;-58
2022/01/24 07:43:23;;;;;;;18.70;12.10;;;;;;;3.75;99.04;103446.31;5074323;28;20088;-49
2022/01/24 07:45:51;;;;;;;21.10;12.85;;;;;;;3.65;100.00;103448.00;5074246;28;20056;-47
2022/01/24 07:48:22;;;;;;;19.88;12.05;;;;;;;3.70;100.00;103454.97;5074011;28;20454;-48
2022/01/24 07:50:52;;;;;;;19.98;12.45;;;;;;;3.72;99.24;103453.28;5073680;28;20047;-49
2022/01/24 07:53:22;;;;;;;21.65;12.63;;;;;;;3.67;99.45;103451.50;5073947;28;20041;-48
2022/01/24 07:56:11;;;;;;;20.30;12.43;;;;;;;3.66;99.83;103445.41;5073689;28;20110;-46
2022/01/24 07:58:41;;;;;;;20.73;12.38;;;;;;;3.65;100.00;103448.00;5072022;28;20495;-50
2022/01/24 08:01:10;;;;;;;22.52;12.13;;;;;;;3.64;99.95;103452.34;5073442;28;20046;-44
2022/01/24 08:03:39;;;;;;;17.25;10.73;;;;;;;3.72;98.94;103449.78;5073561;28;20098;-45
2022/01/24 08:06:07;;;;;;;20.15;10.52;;;;;;;3.65;97.20;103446.28;5073699;28;20041;-47
2022/01/24 08:08:36;;;;;;;20.75;11.77;;;;;;;3.70;98.11;103447.16;5073610;28;20321;-46
2022/01/24 08:11:04;;;;;;;18.67;10.82;;;;;;;3.70;99.07;103448.91;5073571;28;20033;-46
2022/01/24 08:13:32;;;;;;;17.70;10.77;;;;;;;3.69;99.38;103447.16;5073318;28;20098;-46
2022/01/24 08:16:00;;;;;;;19.95;12.57;;;;;;;3.68;98.74;103451.50;5073242;28;20068;-45
2022/01/24 08:18:29;;;;;;;17.85;10.27;;;;;;;3.72;98.70;103457.59;5072663;28;20121;-49
2022/01/24 08:20:58;;;;;;;17.23;11.02;;;;;;;3.75;98.50;103459.34;5072667;28;20136;-48
2022/01/24 08:23:27;;;;;;;20.02;11.82;;;;;;;3.73;99.13;103456.72;5073043;28;20425;-50
2022/01/24 08:25:55;;;;;;;20.45;11.60;;;;;;;3.76;98.00;103458.47;5073133;28;20055;-49
2022/01/24 08:28:24;;;;;;;18.40;11.18;;;;;;;3.77;98.44;103460.22;5072799;28;20526;-49
2022/01/24 08:30:53;;;;;;;19.75;11.55;;;;;;;3.76;98.71;103456.75;5073069;28;20037;-46
2022/01/24 08:33:22;;;;;;;18.05;11.13;;;;;;;3.79;98.07;103456.78;5073196;28;20044;-45
2022/01/24 08:35:52;;;;;;;19.42;12.02;;;;;;;3.69;99.16;103461.03;5073087;28;20048;-47
2022/01/24 08:38:23;;;;;;;17.67;11.25;;;;;;;3.68;98.64;103453.22;5072763;28;20495;-58
2022/01/24 08:40:57;;;;;;;18.27;11.45;;;;;;;3.69;100.00;103457.59;5072735;28;20123;-58
2022/01/24 08:43:38;;;;;;;17.95;11.48;;;;;;;3.77;99.55;103458.50;5072822;28;20048;-57
2022/01/24 08:46:06;;;;;;;17.60;10.70;;;;;;;3.82;98.48;103458.53;5072711;28;20404;-58
2022/01/24 08:48:36;;;;;;;20.90;12.63;;;;;;;3.80;99.14;103457.63;5072706;28;20058;-47
2022/01/24 08:51:04;;;;;;;20.63;12.18;;;;;;;3.81;99.62;103465.44;5072111;28;20032;-49
2022/01/24 08:53:34;;;;;;;17.88;11.77;;;;;;;3.88;99.42;103459.41;5072492;28;20521;-48
2022/01/24 08:56:05;;;;;;;20.30;12.30;;;;;;;3.95;99.19;103462.06;5072265;28;20072;-48
2022/01/24 08:58:34;;;;;;;19.50;12.25;;;;;;;4.01;98.75;103462.09;5071899;28;20624;-49
2022/01/24 09:01:07;;;;;;;19.02;11.63;;;;;;;3.99;97.95;103458.59;5072123;28;20045;-43
2022/01/24 09:03:41;;;;;;;21.13;12.45;;;;;;;4.02;99.26;103462.09;5069931;28;20143;-45
2022/01/24 09:06:22;;;;;;;19.83;12.85;;;;;;;3.99;98.97;103463.81;5070017;28;20097;-44
2022/01/24 09:09:00;;;;;;;20.23;12.43;;;;;;;4.06;99.43;103461.25;5069319;28;20047;-47
2022/01/24 09:11:31;;;;;;;20.42;12.43;;;;;;;4.02;98.68;103458.59;5068416;28;20473;-49
2022/01/24 09:13:59;;;;;;;20.83;12.23;;;;;;;4.03;97.95;103461.22;5070080;28;20049;-45
2022/01/24 09:16:28;;;;;;;17.67;12.93;;;;;;;4.05;99.15;103456.88;5072459;28;20483;-46
2022/01/24 09:18:58;;;;;;;18.50;11.90;;;;;;;4.14;96.05;103463.84;5072298;28;20098;-46
2022/01/24 09:21:28;;;;;;;19.45;12.60;;;;;;;4.10;97.06;103464.72;5072278;28;20044;-57
2022/01/24 09:23:58;;;;;;;19.73;12.80;;;;;;;4.11;96.74;103463.84;5072179;28;20135;-57
2022/01/24 09:26:27;;;;;;;18.52;11.43;;;;;;;4.11;96.01;103458.63;5072055;28;20051;-55
2022/01/24 09:28:55;;;;;;;16.83;10.32;;;;;;;4.07;94.72;103467.31;5071914;28;20059;-56
2022/01/24 09:31:23;;;;;;;19.13;11.50;;;;;;;4.03;95.81;103475.97;5071994;28;20533;-57
2022/01/24 09:33:52;;;;;;;17.88;11.80;;;;;;;4.05;96.56;103461.25;5072225;28;20487;-44
2022/01/24 09:36:21;;;;;;;17.85;10.63;;;;;;;4.03;95.64;103469.03;5071887;28;20055;-48
2022/01/24 09:38:49;;;;;;;15.80;10.27;;;;;;;4.05;95.88;103463.84;5072010;28;20721;-47
2022/01/24 09:41:19;;;;;;;17.10;11.13;;;;;;;4.09;93.81;103462.09;5072035;28;20045;-44
2022/01/24 09:43:48;;;;;;;17.88;10.50;;;;;;;4.16;94.58;103462.13;5071903;28;20040;-45
2022/01/24 09:46:16;;;;;;;17.92;11.38;;;;;;;4.22;94.35;103462.16;5072095;28;20060;-44
2022/01/24 09:48:44;;;;;;;18.38;12.63;;;;;;;4.16;94.83;103462.13;5071842;28;20072;-45
2022/01/24 09:51:13;;;;;;;18.67;12.23;;;;;;;4.18;95.58;103464.75;5071430;28;20439;-49
2022/01/24 09:53:41;;;;;;;19.10;12.02;;;;;;;4.22;95.25;103456.94;5071455;28;20051;-49
2022/01/24 09:56:09;;;;;;;18.80;11.88;;;;;;;4.22;95.36;103469.97;5071881;28;20495;-49
2022/01/24 09:58:39;;;;;;;17.83;11.88;;;;;;;4.26;95.16;103460.44;5071575;28;20064;-47
2022/01/24 10:01:09;;;;;;;18.42;12.25;;;;;;;4.34;94.64;103463.06;5071760;28;20449;-48
2022/01/24 10:03:38;;;;;;;18.13;11.98;;;;;;;4.33;96.35;103462.19;5075375;28;20106;-49
2022/01/24 10:06:12;;;;;;;17.42;11.07;;;;;;;4.34;95.20;103460.47;5075837;28;20052;-49
2022/01/24 10:08:40;;;;;;;16.73;11.60;;;;;;;4.37;95.45;103463.06;5075691;28;20044;-48
2022/01/24 10:11:09;;;;;;;17.25;11.40;;;;;;;4.39;94.33;103461.31;5075668;28;20041;-50
2022/01/24 10:16:31;;;;;;;19.33;12.90;;;;;;;4.42;94.96;103463.97;5075560;28;20032;-45
2022/01/24 10:19:06;;;;;;;17.08;12.30;;;;;;;4.46;95.71;103464.81;5075483;28;20048;-45
2022/01/24 10:21:57;;;;;;;18.10;12.10;;;;;;;4.46;95.71;103468.31;5075247;28;20460;-50
2022/01/24 10:24:37;;;;;;;14.05;10.10;;;;;;;4.45;94.87;103457.88;5075132;28;20048;-47
2022/01/24 10:27:12;;;;;;;14.55;10.45;;;;;;;4.41;95.53;103467.44;5074115;28;20087;-48
2022/01/24 10:29:50;;;;;;;14.50;10.13;;;;;;;4.40;94.46;103466.56;5075344;28;20060;-46
2022/01/24 10:32:38;;;;;;;17.75;12.30;;;;;;;4.48;94.78;103463.97;5075144;28;20044;-48
2022/01/24 10:35:33;;;;;;;17.15;10.50;;;;;;;4.56;94.43;103467.44;5075110;28;20079;-47
2022/01/24 10:38:28;;;;;;;14.90;11.48;;;;;;;4.47;94.28;103459.63;5075180;28;20157;-48
2022/01/24 10:43:52;;;;;;;16.50;11.07;;;;;;;4.52;94.30;103455.28;5073016;28;20730;-45
2022/01/24 10:46:26;;;;;;;18.55;12.10;;;;;;;4.53;94.00;103448.34;5075319;28;20526;-45
2022/01/24 10:49:03;;;;;;;17.33;12.38;;;;;;;4.46;94.25;103446.56;5075012;28;20036;-49
2022/01/24 10:51:37;;;;;;;18.23;13.05;;;;;;;4.51;94.70;103448.34;5074907;28;20131;-47
2022/01/24 10:54:06;;;;;;;17.70;12.07;;;;;;;4.51;93.96;103440.53;5074768;28;20055;-47
2022/01/24 10:56:35;;;;;;;17.27;11.70;;;;;;;4.52;94.75;103436.19;5074997;28;20040;-49
2022/01/24 10:59:21;;;;;;;17.90;12.20;;;;;;;4.57;92.93;103432.69;5073386;28;20739;-50
2022/01/24 11:01:54;;;;;;;17.58;12.25;;;;;;;4.64;93.48;103433.59;5074725;28;20080;-50
2022/01/24 11:04:26;;;;;;;21.88;12.75;;;;;;;4.67;93.69;103427.50;5074671;28;20048;-47
2022/01/24 11:06:57;;;;;;;21.13;12.00;;;;;;;4.69;92.31;103425.75;5074999;28;20075;-49
2022/01/24 11:09:28;;;;;;;18.70;12.00;;;;;;;4.74;92.66;103429.25;5090213;28;20055;-47
2022/01/24 11:11:59;;;;;;;17.52;11.88;;;;;;;4.69;91.43;103425.75;5074565;28;20400;-48
2022/01/24 11:14:31;;;;;;;18.55;13.20;;;;;;;4.74;92.93;103434.47;5074283;28;20052;-44
2022/01/24 11:17:01;;;;;;;17.30;11.75;;;;;;;4.75;92.49;103433.59;5074436;28;20045;-47
2022/01/24 11:19:36;;;;;;;16.52;11.65;;;;;;;4.67;93.23;103433.56;5074355;28;20048;-44
2022/01/24 11:22:06;;;;;;;17.95;12.40;;;;;;;4.74;92.78;103431.84;5074224;28;20045;-48
2022/01/24 11:24:41;;;;;;;16.00;10.85;;;;;;;4.88;89.86;103429.25;5073899;28;20059;-49
2022/01/24 11:27:29;;;;;;;17.30;11.63;;;;;;;4.78;90.88;103420.56;5074267;28;20049;-47
2022/01/24 11:30:03;;;;;;;16.40;11.75;;;;;;;4.75;91.26;103431.00;5074301;28;20532;-46
2022/01/24 11:32:38;;;;;;;19.15;13.02;;;;;;;4.83;91.19;103412.75;5074220;28;20036;-46
2022/01/24 11:35:07;;;;;;;17.02;12.15;;;;;;;4.77;90.76;103410.97;5074170;28;20048;-47
2022/01/24 11:37:38;;;;;;;21.23;12.18;;;;;;;4.81;92.07;103409.25;5074380;28;20411;-46
2022/01/24 11:40:11;;;;;;;18.05;11.95;;;;;;;4.84;91.62;103404.91;5074116;28;20044;-46
2022/01/24 11:42:40;;;;;;;16.30;11.57;;;;;;;4.80;91.13;103416.22;5072735;28;20067;-48
2022/01/24 11:45:45;;;;;;;17.40;12.88;;;;;;;4.82;92.74;103413.63;5074108;28;20140;-47
2022/01/24 11:48:17;;;;;;;17.35;12.30;;;;;;;4.86;91.95;103412.75;5073762;28;20999;-46
2022/01/24 11:50:57;;;;;;;17.05;11.93;;;;;;;4.84;91.34;103411.84;5073521;28;20143;-48
2022/01/24 11:53:27;;;;;;;16.95;12.43;;;;;;;4.96;90.37;103416.22;5073774;28;20043;-45
2022/01/24 11:55:57;;;;;;;17.55;11.55;;;;;;;4.99;90.75;103411.88;5073809;28;20040;-47
2022/01/24 11:58:29;;;;;;;17.67;12.27;;;;;;;5.03;89.68;103416.22;5073502;28;20052;-46
2022/01/24 12:01:03;;;;;;;19.92;12.93;;;;;;;5.01;91.08;103412.72;5073535;28;20132;-48
2022/01/24 12:03:34;;;;;;;18.63;12.02;;;;;;;5.07;90.03;103406.63;5073602;28;20041;-58
2022/01/24 12:06:09;;;;;;;18.65;12.95;;;;;;;4.97;91.69;103404.91;5073578;28;20049;-57
2022/01/24 12:09:05;;;;;;;19.13;12.32;;;;;;;5.04;90.73;103417.06;5073501;28;20391;-57
2022/01/24 12:11:36;;;;;;;20.10;12.45;;;;;;;5.01;91.61;103404.91;5073265;28;20147;-56
2022/01/24 12:14:37;;;;;;;17.73;12.60;;;;;;;5.06;90.53;103411.00;5073416;28;20041;-57
2022/01/24 12:17:10;;;;;;;16.92;12.57;;;;;;;5.08;90.79;103410.97;5073331;28;20138;-58
2022/01/24 12:19:39;;;;;;;17.50;12.95;;;;;;;5.08;90.53;103405.75;5073340;28;20114;-49
2022/01/24 12:22:37;;;;;;;19.45;12.20;;;;;;;5.11;90.78;103400.53;5073256;28;20047;-46
2022/01/24 12:25:09;;;;;;;16.25;11.55;;;;;;;5.12;90.27;103399.66;5072518;28;20044;-50
2022/01/24 12:28:19;;;;;;;16.98;11.88;;;;;;;5.06;90.81;103395.34;5073277;28;20139;-50
2022/01/24 12:30:59;;;;;;;18.58;12.77;;;;;;;5.06;90.81;103389.25;5073114;28;20071;-51
2022/01/24 12:33:36;;;;;;;19.42;13.15;;;;;;;5.12;90.75;103377.94;5073192;28;20087;-58
2022/01/24 12:36:08;;;;;;;21.38;13.70;;;;;;;5.15;90.44;103377.94;5072935;28;20048;-57
2022/01/24 12:38:44;;;;;;;18.88;13.40;;;;;;;5.18;89.89;103384.03;5072957;28;20051;-57
2022/01/24 12:41:16;;;;;;;20.15;13.95;;;;;;;5.17;90.61;103384.03;5072831;28;20506;-58
2022/01/24 12:43:55;;;;;;;;;;;;;;;5.10;89.78;103375.34;5073454;28;20044;-57
2022/01/24 12:46:25;;;;;;;19.67;12.90;;;;;;;5.11;90.92;103387.50;5073178;28;19920;-57
2022/01/24 12:48:55;;;;;;;19.10;13.00;;;;;;;5.16;89.81;103390.97;5072930;28;20082;-58
2022/01/24 12:51:25;;;;;;;15.98;12.05;;;;;;;5.08;89.65;103391.00;5072720;28;20102;-58